sensor_id;sensor_type;location;lat;lon;timestamp;temperature;humidity
27026;DHT22;14565;48.626;8.978;2022-11-18T00:00:51;7.20;99.90
27026;DHT22;14565;48.626;8.978;2022-11-18T00:03:17;7.10;99.90
27026;DHT22;14565;48.626;8.978;2022-11-18T00:05:50;7.20;99.90
27026;DHT22;14565;48.626;8.978;2022-11-18T00:08:16;7.20;99.90
27026;DHT22;14565;48.626;8.978;2022-11-18T00:10:42;7.20;99.90
27026;DHT22;14565;48.626;8.978;2022-11-18T00:13:11;7.20;99.90
27026;DHT22;14565;48.626;8.978;2022-11-18T00:16:09;7.30;99.90
27026;DHT22;14565;48.626;8.978;2022-11-18T00:18:36;7.20;99.90
27026;DHT22;14565;48.626;8.978;2022-11-18T00:21:07;7.30;99.90
27026;DHT22;14565;48.626;8.978;2022-11-18T00:23:34;7.30;99.90
27026;DHT22;14565;48.626;8.978;2022-11-18T00:26:08;7.30;99.90
27026;DHT22;14565;48.626;8.978;2022-11-18T00:28:35;7.30;99.90
27026;DHT22;14565;48.626;8.978;2022-11-18T00:31:07;7.20;99.90
27026;DHT22;14565;48.626;8.978;2022-11-18T00:33:33;7.20;99.90
27026;DHT22;14565;48.626;8.978;2022-11-18T00:35:58;7.10;99.90
27026;DHT22;14565;48.626;8.978;2022-11-18T00:38:25;7.10;99.90
27026;DHT22;14565;48.626;8.978;2022-11-18T00:41:11;7.10;99.90
27026;DHT22;14565;48.626;8.978;2022-11-18T00:43:38;7.10;99.90
27026;DHT22;14565;48.626;8.978;2022-11-18T00:46:05;7.10;99.90
27026;DHT22;14565;48.626;8.978;2022-11-18T00:48:31;7.10;99.90
27026;DHT22;14565;48.626;8.978;2022-11-18T00:51:04;7.10;99.90
27026;DHT22;14565;48.626;8.978;2022-11-18T00:53:30;7.10;99.90
27026;DHT22;14565;48.626;8.978;2022-11-18T00:55:56;7.10;99.90
27026;DHT22;14565;48.626;8.978;2022-11-18T00:58:21;7.10;99.90
27026;DHT22;14565;48.626;8.978;2022-11-18T01:00:51;7.10;99.90
27026;DHT22;14565;48.626;8.978;2022-11-18T01:03:17;7.10;99.90
27026;DHT22;14565;48.626;8.978;2022-11-18T01:05:43;7.10;99.90
27026;DHT22;14565;48.626;8.978;2022-11-18T01:08:10;7.10;99.90
27026;DHT22;14565;48.626;8.978;2022-11-18T01:10:37;7.10;99.90
27026;DHT22;14565;48.626;8.978;2022-11-18T01:13:04;7.20;99.90
27026;DHT22;14565;48.626;8.978;2022-11-18T01:18:19;7.20;99.90
27026;DHT22;14565;48.626;8.978;2022-11-18T01:20:45;7.20;99.90
27026;DHT22;14565;48.626;8.978;2022-11-18T01:23:11;7.20;99.90
27026;DHT22;14565;48.626;8.978;2022-11-18T01:25:38;7.20;99.90
27026;DHT22;14565;48.626;8.978;2022-11-18T01:28:05;7.30;99.90
27026;DHT22;14565;48.626;8.978;2022-11-18T01:30:35;7.40;99.90
27026;DHT22;14565;48.626;8.978;2022-11-18T01:33:02;7.40;99.90
27026;DHT22;14565;48.626;8.978;2022-11-18T01:35:32;7.20;99.90
27026;DHT22;14565;48.626;8.978;2022-11-18T01:37:58;7.10;99.90
27026;DHT22;14565;48.626;8.978;2022-11-18T01:40:26;7.20;99.90
27026;DHT22;14565;48.626;8.978;2022-11-18T01:42:52;7.20;99.90
27026;DHT22;14565;48.626;8.978;2022-11-18T01:50:27;7.10;99.90
27026;DHT22;14565;48.626;8.978;2022-11-18T01:52:56;7.10;99.90
27026;DHT22;14565;48.626;8.978;2022-11-18T01:55:25;7.10;99.90
27026;DHT22;14565;48.626;8.978;2022-11-18T01:57:58;7.10;99.90
27026;DHT22;14565;48.626;8.978;2022-11-18T02:00:26;7.10;99.90
27026;DHT22;14565;48.626;8.978;2022-11-18T02:02:51;7.10;99.90
27026;DHT22;14565;48.626;8.978;2022-11-18T02:05:18;7.10;99.90
27026;DHT22;14565;48.626;8.978;2022-11-18T02:07:45;7.10;99.90
27026;DHT22;14565;48.626;8.978;2022-11-18T02:10:20;7.10;99.90
27026;DHT22;14565;48.626;8.978;2022-11-18T02:12:48;7.10;99.90
27026;DHT22;14565;48.626;8.978;2022-11-18T02:15:14;7.10;99.90
27026;DHT22;14565;48.626;8.978;2022-11-18T02:20:59;7.10;99.90
27026;DHT22;14565;48.626;8.978;2022-11-18T02:24:13;7.10;99.90
27026;DHT22;14565;48.626;8.978;2022-11-18T02:30:09;7.10;99.90
27026;DHT22;14565;48.626;8.978;2022-11-18T02:35:40;7.20;99.90
27026;DHT22;14565;48.626;8.978;2022-11-18T02:38:18;7.30;99.90
27026;DHT22;14565;48.626;8.978;2022-11-18T02:41:08;7.20;99.90
27026;DHT22;14565;48.626;8.978;2022-11-18T02:43:44;7.20;99.90
27026;DHT22;14565;48.626;8.978;2022-11-18T02:46:15;7.20;99.90
27026;DHT22;14565;48.626;8.978;2022-11-18T02:48:48;7.20;99.90
27026;DHT22;14565;48.626;8.978;2022-11-18T02:51:17;7.20;99.90
27026;DHT22;14565;48.626;8.978;2022-11-18T02:53:46;7.20;99.90
27026;DHT22;14565;48.626;8.978;2022-11-18T02:56:13;7.20;99.90
27026;DHT22;14565;48.626;8.978;2022-11-18T02:58:40;7.10;99.90
27026;DHT22;14565;48.626;8.978;2022-11-18T03:01:06;7.20;99.90
27026;DHT22;14565;48.626;8.978;2022-11-18T03:03:32;7.20;99.90
27026;DHT22;14565;48.626;8.978;2022-11-18T03:11:15;7.10;99.90
27026;DHT22;14565;48.626;8.978;2022-11-18T03:16:32;7.20;99.90
27026;DHT22;14565;48.626;8.978;2022-11-18T03:21:42;7.20;99.90
27026;DHT22;14565;48.626;8.978;2022-11-18T03:26:39;7.30;99.90
27026;DHT22;14565;48.626;8.978;2022-11-18T03:29:12;7.20;99.90
27026;DHT22;14565;48.626;8.978;2022-11-18T03:31:44;7.10;99.90
27026;DHT22;14565;48.626;8.978;2022-11-18T03:34:34;7.20;99.90
27026;DHT22;14565;48.626;8.978;2022-11-18T03:37:05;7.20;99.90
27026;DHT22;14565;48.626;8.978;2022-11-18T03:39:35;7.20;99.90
27026;DHT22;14565;48.626;8.978;2022-11-18T03:44:45;7.20;99.90
27026;DHT22;14565;48.626;8.978;2022-11-18T03:47:30;7.30;99.90
27026;DHT22;14565;48.626;8.978;2022-11-18T03:50:00;7.30;99.90
27026;DHT22;14565;48.626;8.978;2022-11-18T03:52:31;7.20;99.90
27026;DHT22;14565;48.626;8.978;2022-11-18T03:55:00;7.30;99.90
27026;DHT22;14565;48.626;8.978;2022-11-18T04:00:16;7.30;99.90
27026;DHT22;14565;48.626;8.978;2022-11-18T04:02:43;7.30;99.90
27026;DHT22;14565;48.626;8.978;2022-11-18T04:05:11;7.30;99.90
27026;DHT22;14565;48.626;8.978;2022-11-18T04:10:13;7.20;99.90
27026;DHT22;14565;48.626;8.978;2022-11-18T04:15:39;7.20;99.90
27026;DHT22;14565;48.626;8.978;2022-11-18T04:18:05;7.30;99.90
27026;DHT22;14565;48.626;8.978;2022-11-18T04:20:30;7.20;99.90
27026;DHT22;14565;48.626;8.978;2022-11-18T04:22:58;7.20;99.90
27026;DHT22;14565;48.626;8.978;2022-11-18T04:25:24;7.20;99.90
27026;DHT22;14565;48.626;8.978;2022-11-18T04:27:50;7.10;99.90
27026;DHT22;14565;48.626;8.978;2022-11-18T04:30:16;7.10;99.90
27026;DHT22;14565;48.626;8.978;2022-11-18T04:32:42;7.10;99.90
27026;DHT22;14565;48.626;8.978;2022-11-18T04:35:08;7.10;99.90
27026;DHT22;14565;48.626;8.978;2022-11-18T04:37:33;7.00;99.90
27026;DHT22;14565;48.626;8.978;2022-11-18T04:39:59;7.00;99.90
27026;DHT22;14565;48.626;8.978;2022-11-18T04:42:25;7.00;99.90
27026;DHT22;14565;48.626;8.978;2022-11-18T04:44:50;6.90;99.90
27026;DHT22;14565;48.626;8.978;2022-11-18T04:47:16;7.00;99.90
27026;DHT22;14565;48.626;8.978;2022-11-18T04:49:42;7.00;99.90
27026;DHT22;14565;48.626;8.978;2022-11-18T04:52:07;6.90;99.90
27026;DHT22;14565;48.626;8.978;2022-11-18T04:54:33;7.00;99.90
27026;DHT22;14565;48.626;8.978;2022-11-18T04:56:59;6.90;99.90
27026;DHT22;14565;48.626;8.978;2022-11-18T04:59:26;7.00;99.90
27026;DHT22;14565;48.626;8.978;2022-11-18T05:01:53;6.90;99.90
27026;DHT22;14565;48.626;8.978;2022-11-18T05:04:21;6.90;99.90
27026;DHT22;14565;48.626;8.978;2022-11-18T05:06:48;6.90;99.90
27026;DHT22;14565;48.626;8.978;2022-11-18T05:09:14;6.90;99.90
27026;DHT22;14565;48.626;8.978;2022-11-18T05:11:40;6.90;99.90
27026;DHT22;14565;48.626;8.978;2022-11-18T05:14:25;6.90;99.90
27026;DHT22;14565;48.626;8.978;2022-11-18T05:16:51;6.90;99.90
27026;DHT22;14565;48.626;8.978;2022-11-18T05:19:17;6.90;99.90
27026;DHT22;14565;48.626;8.978;2022-11-18T05:21:43;6.80;99.90
27026;DHT22;14565;48.626;8.978;2022-11-18T05:24:08;6.80;99.90
27026;DHT22;14565;48.626;8.978;2022-11-18T05:26:34;6.80;99.90
27026;DHT22;14565;48.626;8.978;2022-11-18T05:29:00;6.70;99.90
27026;DHT22;14565;48.626;8.978;2022-11-18T05:31:26;6.70;99.90
27026;DHT22;14565;48.626;8.978;2022-11-18T05:33:52;6.70;99.90
27026;DHT22;14565;48.626;8.978;2022-11-18T05:36:19;6.70;99.90
27026;DHT22;14565;48.626;8.978;2022-11-18T05:38:45;6.70;99.90
27026;DHT22;14565;48.626;8.978;2022-11-18T05:41:11;6.70;99.90
27026;DHT22;14565;48.626;8.978;2022-11-18T05:43:59;6.70;99.90
27026;DHT22;14565;48.626;8.978;2022-11-18T05:46:25;6.60;99.90
27026;DHT22;14565;48.626;8.978;2022-11-18T05:48:51;6.70;99.90
27026;DHT22;14565;48.626;8.978;2022-11-18T05:51:17;6.70;99.90
27026;DHT22;14565;48.626;8.978;2022-11-18T05:53:43;6.70;99.90
27026;DHT22;14565;48.626;8.978;2022-11-18T05:56:21;6.70;99.90
27026;DHT22;14565;48.626;8.978;2022-11-18T05:58:48;6.70;99.90
27026;DHT22;14565;48.626;8.978;2022-11-18T06:01:39;6.70;99.90
27026;DHT22;14565;48.626;8.978;2022-11-18T06:04:14;6.70;99.90
27026;DHT22;14565;48.626;8.978;2022-11-18T06:06:43;6.60;99.90
27026;DHT22;14565;48.626;8.978;2022-11-18T06:09:11;6.60;99.90
27026;DHT22;14565;48.626;8.978;2022-11-18T06:11:43;6.60;99.90
27026;DHT22;14565;48.626;8.978;2022-11-18T06:14:24;6.70;99.90
27026;DHT22;14565;48.626;8.978;2022-11-18T06:16:54;6.70;99.90
27026;DHT22;14565;48.626;8.978;2022-11-18T06:19:21;6.60;99.90
27026;DHT22;14565;48.626;8.978;2022-11-18T06:21:47;6.50;99.90
27026;DHT22;14565;48.626;8.978;2022-11-18T06:24:13;6.50;99.90
27026;DHT22;14565;48.626;8.978;2022-11-18T06:26:39;6.60;99.90
27026;DHT22;14565;48.626;8.978;2022-11-18T06:29:07;6.60;99.90
27026;DHT22;14565;48.626;8.978;2022-11-18T06:31:34;6.60;99.90
27026;DHT22;14565;48.626;8.978;2022-11-18T06:34:00;6.70;99.90
27026;DHT22;14565;48.626;8.978;2022-11-18T06:36:26;6.50;99.90
27026;DHT22;14565;48.626;8.978;2022-11-18T06:38:51;6.60;99.90
27026;DHT22;14565;48.626;8.978;2022-11-18T06:41:17;6.50;99.90
27026;DHT22;14565;48.626;8.978;2022-11-18T06:43:42;6.50;99.90
27026;DHT22;14565;48.626;8.978;2022-11-18T06:46:13;6.60;99.90
27026;DHT22;14565;48.626;8.978;2022-11-18T06:48:58;6.60;99.90
27026;DHT22;14565;48.626;8.978;2022-11-18T06:51:24;6.60;99.90
27026;DHT22;14565;48.626;8.978;2022-11-18T06:53:50;6.60;99.90
27026;DHT22;14565;48.626;8.978;2022-11-18T06:56:18;6.60;99.90
27026;DHT22;14565;48.626;8.978;2022-11-18T06:58:44;6.60;99.90
27026;DHT22;14565;48.626;8.978;2022-11-18T07:01:17;6.60;99.90
27026;DHT22;14565;48.626;8.978;2022-11-18T07:03:45;6.60;99.90
27026;DHT22;14565;48.626;8.978;2022-11-18T07:06:13;6.50;99.90
27026;DHT22;14565;48.626;8.978;2022-11-18T07:08:40;6.40;99.90
27026;DHT22;14565;48.626;8.978;2022-11-18T07:11:11;6.40;99.90
27026;DHT22;14565;48.626;8.978;2022-11-18T07:13:38;6.60;99.90
27026;DHT22;14565;48.626;8.978;2022-11-18T07:16:08;6.60;99.90
27026;DHT22;14565;48.626;8.978;2022-11-18T07:18:35;6.70;99.90
27026;DHT22;14565;48.626;8.978;2022-11-18T07:21:06;6.50;99.90
27026;DHT22;14565;48.626;8.978;2022-11-18T07:23:33;6.60;99.90
27026;DHT22;14565;48.626;8.978;2022-11-18T07:25:59;6.80;99.90
27026;DHT22;14565;48.626;8.978;2022-11-18T07:28:25;6.70;99.90
27026;DHT22;14565;48.626;8.978;2022-11-18T07:30:52;6.70;99.90
27026;DHT22;14565;48.626;8.978;2022-11-18T07:33:17;6.70;99.90
27026;DHT22;14565;48.626;8.978;2022-11-18T07:35:44;6.70;99.90
27026;DHT22;14565;48.626;8.978;2022-11-18T07:38:09;6.80;99.90
27026;DHT22;14565;48.626;8.978;2022-11-18T07:40:35;6.70;99.90
27026;DHT22;14565;48.626;8.978;2022-11-18T07:43:01;6.70;99.90
27026;DHT22;14565;48.626;8.978;2022-11-18T07:45:26;6.70;99.90
27026;DHT22;14565;48.626;8.978;2022-11-18T07:47:52;6.80;99.90
27026;DHT22;14565;48.626;8.978;2022-11-18T07:50:18;6.80;99.90
27026;DHT22;14565;48.626;8.978;2022-11-18T07:52:43;6.90;99.90
27026;DHT22;14565;48.626;8.978;2022-11-18T07:55:09;7.00;99.90
27026;DHT22;14565;48.626;8.978;2022-11-18T07:57:35;7.00;99.90
27026;DHT22;14565;48.626;8.978;2022-11-18T08:00:01;7.00;99.90
27026;DHT22;14565;48.626;8.978;2022-11-18T08:02:28;7.00;99.90
27026;DHT22;14565;48.626;8.978;2022-11-18T08:04:54;6.90;99.90
27026;DHT22;14565;48.626;8.978;2022-11-18T08:07:19;7.10;99.90
27026;DHT22;14565;48.626;8.978;2022-11-18T08:09:45;7.00;99.90
27026;DHT22;14565;48.626;8.978;2022-11-18T08:12:10;7.10;99.90
27026;DHT22;14565;48.626;8.978;2022-11-18T08:14:36;7.10;99.90
27026;DHT22;14565;48.626;8.978;2022-11-18T08:17:02;7.10;99.90
27026;DHT22;14565;48.626;8.978;2022-11-18T08:19:27;7.00;99.90
27026;DHT22;14565;48.626;8.978;2022-11-18T08:21:53;7.00;99.90
27026;DHT22;14565;48.626;8.978;2022-11-18T08:24:19;7.00;99.90
27026;DHT22;14565;48.626;8.978;2022-11-18T08:26:44;7.10;99.90
27026;DHT22;14565;48.626;8.978;2022-11-18T08:29:10;7.10;99.90
27026;DHT22;14565;48.626;8.978;2022-11-18T08:31:35;7.10;99.90
27026;DHT22;14565;48.626;8.978;2022-11-18T08:34:04;7.00;99.90
27026;DHT22;14565;48.626;8.978;2022-11-18T08:36:34;7.10;99.90
27026;DHT22;14565;48.626;8.978;2022-11-18T08:39:01;7.30;99.90
27026;DHT22;14565;48.626;8.978;2022-11-18T08:41:31;7.20;99.90
27026;DHT22;14565;48.626;8.978;2022-11-18T08:43:57;7.10;99.90
27026;DHT22;14565;48.626;8.978;2022-11-18T08:46:22;7.20;99.90
27026;DHT22;14565;48.626;8.978;2022-11-18T08:48:48;7.10;99.90
27026;DHT22;14565;48.626;8.978;2022-11-18T08:51:14;7.10;99.90
27026;DHT22;14565;48.626;8.978;2022-11-18T08:53:40;7.10;99.90
27026;DHT22;14565;48.626;8.978;2022-11-18T08:56:10;7.00;99.90
27026;DHT22;14565;48.626;8.978;2022-11-18T08:58:37;7.00;99.90
27026;DHT22;14565;48.626;8.978;2022-11-18T09:01:06;7.10;99.90
27026;DHT22;14565;48.626;8.978;2022-11-18T09:03:32;7.00;99.90
27026;DHT22;14565;48.626;8.978;2022-11-18T09:06:14;6.90;99.90
27026;DHT22;14565;48.626;8.978;2022-11-18T09:08:40;7.00;99.90
27026;DHT22;14565;48.626;8.978;2022-11-18T09:11:25;7.10;99.90
27026;DHT22;14565;48.626;8.978;2022-11-18T09:13:52;7.10;99.90
27026;DHT22;14565;48.626;8.978;2022-11-18T09:16:20;7.10;99.90
27026;DHT22;14565;48.626;8.978;2022-11-18T09:18:48;7.10;99.90
27026;DHT22;14565;48.626;8.978;2022-11-18T09:21:14;7.10;99.90
27026;DHT22;14565;48.626;8.978;2022-11-18T09:23:40;7.10;99.90
27026;DHT22;14565;48.626;8.978;2022-11-18T09:26:08;7.20;99.90
27026;DHT22;14565;48.626;8.978;2022-11-18T09:28:33;7.30;99.90
27026;DHT22;14565;48.626;8.978;2022-11-18T09:31:06;7.40;99.90
27026;DHT22;14565;48.626;8.978;2022-11-18T09:33:33;7.50;99.90
27026;DHT22;14565;48.626;8.978;2022-11-18T09:35:58;7.60;99.90
27026;DHT22;14565;48.626;8.978;2022-11-18T09:38:24;7.70;99.90
27026;DHT22;14565;48.626;8.978;2022-11-18T09:49:02;7.70;99.90
27026;DHT22;14565;48.626;8.978;2022-11-18T09:51:50;7.80;99.90
27026;DHT22;14565;48.626;8.978;2022-11-18T09:54:27;7.70;99.90
27026;DHT22;14565;48.626;8.978;2022-11-18T09:56:55;7.70;99.90
27026;DHT22;14565;48.626;8.978;2022-11-18T09:59:26;7.80;99.90
27026;DHT22;14565;48.626;8.978;2022-11-18T10:01:56;8.00;99.90
27026;DHT22;14565;48.626;8.978;2022-11-18T10:04:22;8.10;99.90
27026;DHT22;14565;48.626;8.978;2022-11-18T10:06:49;8.30;99.90
27026;DHT22;14565;48.626;8.978;2022-11-18T10:09:38;8.50;99.90
27026;DHT22;14565;48.626;8.978;2022-11-18T10:12:45;8.80;99.90
27026;DHT22;14565;48.626;8.978;2022-11-18T10:15:33;8.80;99.90
27026;DHT22;14565;48.626;8.978;2022-11-18T10:18:12;8.80;99.90
27026;DHT22;14565;48.626;8.978;2022-11-18T10:23:25;9.00;99.90
27026;DHT22;14565;48.626;8.978;2022-11-18T10:25:53;8.80;99.90
27026;DHT22;14565;48.626;8.978;2022-11-18T10:28:27;8.80;99.90
27026;DHT22;14565;48.626;8.978;2022-11-18T10:31:11;9.00;99.90
27026;DHT22;14565;48.626;8.978;2022-11-18T10:33:37;9.20;99.90
27026;DHT22;14565;48.626;8.978;2022-11-18T10:38:42;9.30;99.90
27026;DHT22;14565;48.626;8.978;2022-11-18T10:41:16;9.20;99.90
27026;DHT22;14565;48.626;8.978;2022-11-18T10:43:50;9.20;99.90
27026;DHT22;14565;48.626;8.978;2022-11-18T10:46:25;9.20;99.90
27026;DHT22;14565;48.626;8.978;2022-11-18T10:52:13;9.00;99.90
27026;DHT22;14565;48.626;8.978;2022-11-18T10:54:40;8.90;99.90
27026;DHT22;14565;48.626;8.978;2022-11-18T10:57:22;8.80;99.90
27026;DHT22;14565;48.626;8.978;2022-11-18T10:59:55;8.60;99.90
27026;DHT22;14565;48.626;8.978;2022-11-18T11:02:32;8.60;99.90
27026;DHT22;14565;48.626;8.978;2022-11-18T11:05:02;8.40;99.90
27026;DHT22;14565;48.626;8.978;2022-11-18T11:12:37;8.30;99.90
27026;DHT22;14565;48.626;8.978;2022-11-18T11:15:15;8.50;99.90
27026;DHT22;14565;48.626;8.978;2022-11-18T11:17:49;8.40;99.90
27026;DHT22;14565;48.626;8.978;2022-11-18T11:20:37;8.40;99.90
27026;DHT22;14565;48.626;8.978;2022-11-18T11:23:10;8.50;99.90
27026;DHT22;14565;48.626;8.978;2022-11-18T11:25:43;8.40;99.90
27026;DHT22;14565;48.626;8.978;2022-11-18T11:31:14;8.40;99.90
27026;DHT22;14565;48.626;8.978;2022-11-18T11:36:21;8.30;99.90
27026;DHT22;14565;48.626;8.978;2022-11-18T11:44:40;8.70;99.90
27026;DHT22;14565;48.626;8.978;2022-11-18T11:47:12;8.70;99.90
27026;DHT22;14565;48.626;8.978;2022-11-18T11:50:00;8.70;99.90
27026;DHT22;14565;48.626;8.978;2022-11-18T11:57:48;8.60;99.90
27026;DHT22;14565;48.626;8.978;2022-11-18T12:00:17;8.40;99.90
27026;DHT22;14565;48.626;8.978;2022-11-18T12:08:26;8.40;99.90
27026;DHT22;14565;48.626;8.978;2022-11-18T12:10:49;8.40;99.90
27026;DHT22;14565;48.626;8.978;2022-11-18T12:16:28;8.50;99.90
27026;DHT22;14565;48.626;8.978;2022-11-18T12:26:49;8.50;99.90
27026;DHT22;14565;48.626;8.978;2022-11-18T12:29:30;8.60;99.90
27026;DHT22;14565;48.626;8.978;2022-11-18T12:31:58;8.70;99.90
27026;DHT22;14565;48.626;8.978;2022-11-18T12:42:43;8.90;99.90
27026;DHT22;14565;48.626;8.978;2022-11-18T12:53:50;8.90;99.90
27026;DHT22;14565;48.626;8.978;2022-11-18T12:58:55;8.90;99.90
27026;DHT22;14565;48.626;8.978;2022-11-18T13:01:27;8.80;99.90
27026;DHT22;14565;48.626;8.978;2022-11-18T13:06:32;8.70;99.90
27026;DHT22;14565;48.626;8.978;2022-11-18T13:09:04;8.60;99.90
27026;DHT22;14565;48.626;8.978;2022-11-18T13:11:42;8.60;99.90
27026;DHT22;14565;48.626;8.978;2022-11-18T13:17:42;8.50;99.90
27026;DHT22;14565;48.626;8.978;2022-11-18T13:22:52;8.60;99.90
27026;DHT22;14565;48.626;8.978;2022-11-18T13:25:36;8.50;99.90
27026;DHT22;14565;48.626;8.978;2022-11-18T13:31:06;8.80;99.90
27026;DHT22;14565;48.626;8.978;2022-11-18T13:33:40;8.80;99.90
27026;DHT22;14565;48.626;8.978;2022-11-18T13:38:59;8.70;99.90
27026;DHT22;14565;48.626;8.978;2022-11-18T13:41:27;8.70;99.90
27026;DHT22;14565;48.626;8.978;2022-11-18T13:44:18;8.70;99.90
27026;DHT22;14565;48.626;8.978;2022-11-18T13:46:48;8.70;99.90
27026;DHT22;14565;48.626;8.978;2022-11-18T13:49:20;8.80;99.90
27026;DHT22;14565;48.626;8.978;2022-11-18T13:51:48;8.80;99.90
27026;DHT22;14565;48.626;8.978;2022-11-18T13:54:23;8.50;99.90
27026;DHT22;14565;48.626;8.978;2022-11-18T13:56:50;8.50;99.90
27026;DHT22;14565;48.626;8.978;2022-11-18T13:59:18;8.60;99.90
27026;DHT22;14565;48.626;8.978;2022-11-18T14:01:46;8.60;99.90
27026;DHT22;14565;48.626;8.978;2022-11-18T14:04:22;8.50;99.90
27026;DHT22;14565;48.626;8.978;2022-11-18T14:06:50;8.70;99.90
27026;DHT22;14565;48.626;8.978;2022-11-18T14:09:29;8.50;99.90
27026;DHT22;14565;48.626;8.978;2022-11-18T14:14:30;8.50;99.90
27026;DHT22;14565;48.626;8.978;2022-11-18T14:19:41;8.60;99.90
27026;DHT22;14565;48.626;8.978;2022-11-18T14:25:34;8.80;99.90
27026;DHT22;14565;48.626;8.978;2022-11-18T14:34:24;8.90;99.90
27026;DHT22;14565;48.626;8.978;2022-11-18T14:36:51;9.00;99.90
27026;DHT22;14565;48.626;8.978;2022-11-18T14:39:24;8.80;99.90
27026;DHT22;14565;48.626;8.978;2022-11-18T14:41:50;8.90;99.90
27026;DHT22;14565;48.626;8.978;2022-11-18T14:44:18;8.70;99.90
27026;DHT22;14565;48.626;8.978;2022-11-18T14:46:46;8.70;99.90
27026;DHT22;14565;48.626;8.978;2022-11-18T14:49:16;8.60;99.90
27026;DHT22;14565;48.626;8.978;2022-11-18T14:51:42;8.50;99.90
27026;DHT22;14565;48.626;8.978;2022-11-18T14:54:12;8.30;99.90
27026;DHT22;14565;48.626;8.978;2022-11-18T14:56:40;8.30;99.90
27026;DHT22;14565;48.626;8.978;2022-11-18T14:59:06;8.20;99.90
27026;DHT22;14565;48.626;8.978;2022-11-18T15:01:32;8.20;99.90
27026;DHT22;14565;48.626;8.978;2022-11-18T15:03:57;8.10;99.90
27026;DHT22;14565;48.626;8.978;2022-11-18T15:06:23;8.10;99.90
27026;DHT22;14565;48.626;8.978;2022-11-18T15:08:51;8.00;99.90
27026;DHT22;14565;48.626;8.978;2022-11-18T15:11:17;8.00;99.90
27026;DHT22;14565;48.626;8.978;2022-11-18T15:13:43;7.90;99.90
27026;DHT22;14565;48.626;8.978;2022-11-18T15:18:52;7.90;99.90
27026;DHT22;14565;48.626;8.978;2022-11-18T15:21:18;7.90;99.90
27026;DHT22;14565;48.626;8.978;2022-11-18T15:23:45;7.80;99.90
27026;DHT22;14565;48.626;8.978;2022-11-18T15:28:50;7.80;99.90
27026;DHT22;14565;48.626;8.978;2022-11-18T15:31:16;7.70;99.90
27026;DHT22;14565;48.626;8.978;2022-11-18T15:33:43;7.80;99.90
27026;DHT22;14565;48.626;8.978;2022-11-18T15:36:14;7.70;99.90
27026;DHT22;14565;48.626;8.978;2022-11-18T15:38:40;7.70;99.90
27026;DHT22;14565;48.626;8.978;2022-11-18T15:41:11;7.70;99.90
27026;DHT22;14565;48.626;8.978;2022-11-18T15:43:39;7.70;99.90
27026;DHT22;14565;48.626;8.978;2022-11-18T15:46:05;7.60;99.90
27026;DHT22;14565;48.626;8.978;2022-11-18T15:48:30;7.70;99.90
27026;DHT22;14565;48.626;8.978;2022-11-18T15:50:56;7.70;99.90
27026;DHT22;14565;48.626;8.978;2022-11-18T15:53:22;7.60;99.90
27026;DHT22;14565;48.626;8.978;2022-11-18T15:55:47;7.60;99.90
27026;DHT22;14565;48.626;8.978;2022-11-18T15:58:13;7.60;99.90
27026;DHT22;14565;48.626;8.978;2022-11-18T16:00:39;7.50;99.90
27026;DHT22;14565;48.626;8.978;2022-11-18T16:03:04;7.50;99.90
27026;DHT22;14565;48.626;8.978;2022-11-18T16:05:30;7.40;99.90
27026;DHT22;14565;48.626;8.978;2022-11-18T16:07:55;7.40;99.90
27026;DHT22;14565;48.626;8.978;2022-11-18T16:10:21;7.30;99.90
27026;DHT22;14565;48.626;8.978;2022-11-18T16:13:05;7.20;99.90
27026;DHT22;14565;48.626;8.978;2022-11-18T16:15:33;7.00;99.90
27026;DHT22;14565;48.626;8.978;2022-11-18T16:18:08;7.00;99.90
27026;DHT22;14565;48.626;8.978;2022-11-18T16:20:34;7.00;99.90
27026;DHT22;14565;48.626;8.978;2022-11-18T16:23:00;7.00;99.90
27026;DHT22;14565;48.626;8.978;2022-11-18T16:25:26;7.00;99.90
27026;DHT22;14565;48.626;8.978;2022-11-18T16:27:53;7.00;99.90
27026;DHT22;14565;48.626;8.978;2022-11-18T16:30:19;6.90;99.90
27026;DHT22;14565;48.626;8.978;2022-11-18T16:33:04;6.90;99.90
27026;DHT22;14565;48.626;8.978;2022-11-18T16:35:29;6.80;99.90
27026;DHT22;14565;48.626;8.978;2022-11-18T16:37:55;6.70;99.90
27026;DHT22;14565;48.626;8.978;2022-11-18T16:40:21;6.60;99.90
27026;DHT22;14565;48.626;8.978;2022-11-18T16:42:50;6.60;99.90
27026;DHT22;14565;48.626;8.978;2022-11-18T16:45:17;6.50;99.90
27026;DHT22;14565;48.626;8.978;2022-11-18T16:47:49;6.50;99.90
27026;DHT22;14565;48.626;8.978;2022-11-18T16:50:15;6.40;99.90
27026;DHT22;14565;48.626;8.978;2022-11-18T16:52:41;6.40;99.90
27026;DHT22;14565;48.626;8.978;2022-11-18T16:55:06;6.40;99.90
27026;DHT22;14565;48.626;8.978;2022-11-18T16:57:32;6.30;99.90
27026;DHT22;14565;48.626;8.978;2022-11-18T16:59:58;6.30;99.90
27026;DHT22;14565;48.626;8.978;2022-11-18T17:02:23;6.30;99.90
27026;DHT22;14565;48.626;8.978;2022-11-18T17:04:49;6.40;99.90
27026;DHT22;14565;48.626;8.978;2022-11-18T17:07:33;6.40;99.90
27026;DHT22;14565;48.626;8.978;2022-11-18T17:10:19;6.50;99.90
27026;DHT22;14565;48.626;8.978;2022-11-18T17:13:02;6.50;99.90
27026;DHT22;14565;48.626;8.978;2022-11-18T17:15:27;6.40;99.90
27026;DHT22;14565;48.626;8.978;2022-11-18T17:18:01;6.60;99.90
27026;DHT22;14565;48.626;8.978;2022-11-18T17:20:27;6.50;99.90
27026;DHT22;14565;48.626;8.978;2022-11-18T17:23:10;6.50;99.90
27026;DHT22;14565;48.626;8.978;2022-11-18T17:25:48;6.50;99.90
27026;DHT22;14565;48.626;8.978;2022-11-18T17:28:14;6.40;99.90
27026;DHT22;14565;48.626;8.978;2022-11-18T17:31:06;6.30;99.90
27026;DHT22;14565;48.626;8.978;2022-11-18T17:33:59;6.20;99.90
27026;DHT22;14565;48.626;8.978;2022-11-18T17:42:26;6.20;99.90
27026;DHT22;14565;48.626;8.978;2022-11-18T17:44:58;6.20;99.90
27026;DHT22;14565;48.626;8.978;2022-11-18T17:47:24;6.10;99.90
27026;DHT22;14565;48.626;8.978;2022-11-18T17:49:49;6.20;99.90
27026;DHT22;14565;48.626;8.978;2022-11-18T17:52:15;6.10;99.90
27026;DHT22;14565;48.626;8.978;2022-11-18T17:54:42;6.20;99.90
27026;DHT22;14565;48.626;8.978;2022-11-18T17:57:08;6.20;99.90
27026;DHT22;14565;48.626;8.978;2022-11-18T17:59:34;6.10;99.90
27026;DHT22;14565;48.626;8.978;2022-11-18T18:01:59;6.10;99.90
27026;DHT22;14565;48.626;8.978;2022-11-18T18:04:25;6.00;99.90
27026;DHT22;14565;48.626;8.978;2022-11-18T18:06:51;6.00;99.90
27026;DHT22;14565;48.626;8.978;2022-11-18T18:09:20;6.10;99.90
27026;DHT22;14565;48.626;8.978;2022-11-18T18:11:49;6.10;99.90
27026;DHT22;14565;48.626;8.978;2022-11-18T18:14:14;6.20;99.90
27026;DHT22;14565;48.626;8.978;2022-11-18T18:16:48;6.20;99.90
27026;DHT22;14565;48.626;8.978;2022-11-18T18:19:21;6.30;99.90
27026;DHT22;14565;48.626;8.978;2022-11-18T18:21:47;6.30;99.90
27026;DHT22;14565;48.626;8.978;2022-11-18T18:24:14;6.40;99.90
27026;DHT22;14565;48.626;8.978;2022-11-18T18:26:41;6.40;99.90
27026;DHT22;14565;48.626;8.978;2022-11-18T18:29:07;6.40;99.90
27026;DHT22;14565;48.626;8.978;2022-11-18T18:31:34;6.40;99.90
27026;DHT22;14565;48.626;8.978;2022-11-18T18:34:00;6.50;99.90
27026;DHT22;14565;48.626;8.978;2022-11-18T18:36:26;6.40;99.90